Time;durP1;ratioP1;P1;durP2;ratioP2;P2;SDS_P1;SDS_P2;PMS_P1;PMS_P2;Temp;Humidity;BMP_temperature;BMP_pressure;BME280_temperature;BME280_humidity;BME280_pressure;Samples;Min_cycle;Max_cycle;Signal;HPM_P1;HPM_P2
2023/07/02 00:01:52;;;;;;;12.52;5.32;;;17.80;99.90;;;;;;5074897;28;20040;-78
2023/07/02 00:04:19;;;;;;;6.35;3.92;;;17.70;99.90;;;;;;5076486;28;20029;-80
2023/07/02 00:06:48;;;;;;;2.65;1.75;;;17.60;99.90;;;;;;5076294;28;20016;-79
2023/07/02 00:09:15;;;;;;;3.78;1.70;;;17.90;99.90;;;;;;5083301;28;20054;-81
2023/07/02 00:11:44;;;;;;;6.30;2.40;;;17.80;99.90;;;;;;5080782;28;20021;-79
2023/07/02 00:14:10;;;;;;;3.75;1.77;;;17.90;99.90;;;;;;5080812;28;20029;-80
2023/07/02 00:16:39;;;;;;;15.65;4.15;;;17.80;99.90;;;;;;5081383;28;20035;-80
2023/07/02 00:19:05;;;;;;;1.15;1.15;;;17.60;99.90;;;;;;5080887;28;20047;-78
2023/07/02 00:21:33;;;;;;;8.52;2.17;;;17.60;99.90;;;;;;5079891;28;20047;-80
2023/07/02 00:24:00;;;;;;;24.23;5.78;;;17.80;99.90;;;;;;5079721;28;20021;-78
2023/07/02 00:26:27;;;;;;;0.30;0.30;;;17.70;99.90;;;;;;5080022;28;20035;-81
2023/07/02 00:28:56;;;;;;;4.75;0.93;;;17.70;99.90;;;;;;5081819;28;20389;-80
2023/07/02 00:31:23;;;;;;;15.00;3.95;;;18.00;99.90;;;;;;5083365;28;20028;-80
2023/07/02 00:33:50;;;;;;;2.33;1.85;;;17.90;99.90;;;;;;5083247;28;20032;-79
2023/07/02 00:36:16;;;;;;;5.75;3.22;;;17.60;99.90;;;;;;5077152;28;20106;-78
2023/07/02 00:38:47;;;;;;;9.23;3.88;;;17.70;99.90;;;;;;5080026;28;20024;-80
2023/07/02 00:41:13;;;;;;;3.05;1.80;;;17.70;99.90;;;;;;5077394;28;20504;-78
2023/07/02 00:43:43;;;;;;;4.03;1.45;;;17.50;99.90;;;;;;5077794;28;20064;-78
2023/07/02 00:46:22;;;;;;;3.42;2.65;;;17.70;99.90;;;;;;5077907;28;20473;-78
2023/07/02 00:48:50;;;;;;;10.13;3.97;;;17.70;99.90;;;;;;5078576;28;20042;-82
2023/07/02 00:51:18;;;;;;;0.00;0.00;;;17.80;99.90;;;;;;5084114;28;20029;-78
2023/07/02 00:53:45;;;;;;;2.65;2.13;;;17.50;99.90;;;;;;5079273;28;20028;-78
2023/07/02 00:56:12;;;;;;;3.60;0.68;;;17.50;99.90;;;;;;5082777;28;20393;-81
2023/07/02 00:58:50;;;;;;;8.75;3.72;;;17.50;99.90;;;;;;5080927;28;20028;-81
2023/07/02 01:01:18;;;;;;;2.28;0.80;;;17.60;99.90;;;;;;5080675;28;20040;-77
2023/07/02 01:04:04;;;;;;;0.45;0.45;;;17.70;99.90;;;;;;5080402;28;20044;-78
2023/07/02 01:06:32;;;;;;;1.55;0.95;;;17.60;99.90;;;;;;5053997;28;20028;-78
2023/07/02 01:09:00;;;;;;;1.02;0.60;;;17.70;99.90;;;;;;5081195;28;20021;-79
2023/07/02 01:11:33;;;;;;;3.38;1.80;;;17.50;99.90;;;;;;5079662;28;20465;-78
2023/07/02 01:14:33;;;;;;;8.70;1.13;;;17.40;99.90;;;;;;5079497;28;20029;-79
2023/07/02 01:17:00;;;;;;;4.50;1.80;;;17.50;99.90;;;;;;5055868;28;20051;-79
2023/07/02 01:19:52;;;;;;;8.52;2.38;;;17.60;99.90;;;;;;5055502;28;20074;-81
2023/07/02 01:22:20;;;;;;;13.32;2.75;;;17.70;99.90;;;;;;5073705;28;20024;-79
2023/07/02 01:24:47;;;;;;;1.77;0.70;;;17.40;99.90;;;;;;5074992;28;20055;-81
2023/07/02 01:27:14;;;;;;;8.57;5.72;;;17.50;99.90;;;;;;5075414;28;20032;-81
2023/07/02 01:29:45;;;;;;;0.00;0.00;;;17.60;99.90;;;;;;5068289;28;20060;-83
2023/07/02 01:32:11;;;;;;;3.42;3.22;;;17.50;99.90;;;;;;5052911;28;20028;-80
2023/07/02 01:34:37;;;;;;;7.03;4.43;;;17.40;99.90;;;;;;5054178;28;20380;-80
2023/07/02 01:37:03;;;;;;;2.03;1.83;;;17.40;99.90;;;;;;5055384;28;20112;-79
2023/07/02 01:39:29;;;;;;;1.90;1.25;;;17.40;99.90;;;;;;5054601;28;20025;-79
2023/07/02 01:42:06;;;;;;;5.57;1.10;;;17.30;99.90;;;;;;5055777;28;20378;-79
2023/07/02 01:44:32;;;;;;;7.88;3.85;;;17.40;99.90;;;;;;5054141;28;20155;-80
2023/07/02 01:46:58;;;;;;;0.65;0.65;;;17.40;99.90;;;;;;5054762;28;20028;-79
2023/07/02 01:49:24;;;;;;;0.00;0.00;;;17.30;99.90;;;;;;5056568;28;20415;-79
2023/07/02 01:51:51;;;;;;;3.00;1.85;;;17.30;99.90;;;;;;5055892;28;20024;-83
2023/07/02 01:54:21;;;;;;;2.80;1.75;;;17.10;99.90;;;;;;5055673;28;20358;-79
2023/07/02 01:56:48;;;;;;;0.43;0.43;;;17.00;99.90;;;;;;5056110;28;20108;-80
2023/07/02 01:59:14;;;;;;;5.22;1.27;;;16.80;99.90;;;;;;5053317;28;20020;-81
2023/07/02 02:01:42;;;;;;;13.90;3.75;;;17.00;99.90;;;;;;5052994;28;20098;-80
2023/07/02 02:04:09;;;;;;;1.15;1.08;;;17.10;99.90;;;;;;5053781;28;20083;-79
2023/07/02 02:06:35;;;;;;;1.40;0.40;;;17.00;99.90;;;;;;5053593;28;20017;-80
2023/07/02 02:09:04;;;;;;;0.20;0.20;;;17.00;99.90;;;;;;5052833;28;20056;-79
2023/07/02 02:11:31;;;;;;;0.00;0.00;;;17.10;99.90;;;;;;5053840;28;20057;-81
2023/07/02 02:14:02;;;;;;;3.50;2.00;;;17.00;99.90;;;;;;5035611;28;20104;-79
2023/07/02 02:16:28;;;;;;;;;;;17.10;99.90;;;;;;5040310;28;20432;-79
2023/07/02 02:18:55;;;;;;;2.85;2.17;;;17.00;99.90;;;;;;5057889;28;19908;-80
2023/07/02 02:21:21;;;;;;;0.00;0.00;;;16.80;99.90;;;;;;5056681;28;20032;-81
2023/07/02 02:23:48;;;;;;;6.80;1.92;;;16.60;99.90;;;;;;5056609;28;20049;-80
2023/07/02 02:26:14;;;;;;;10.55;2.97;;;16.70;99.90;;;;;;5054782;28;20020;-79
2023/07/02 02:28:41;;;;;;;8.07;3.78;;;16.50;99.90;;;;;;5055719;28;20075;-80
2023/07/02 02:31:06;;;;;;;1.42;1.35;;;16.50;99.90;;;;;;5060342;28;20021;-82
2023/07/02 02:33:35;;;;;;;1.17;0.80;;;16.60;99.90;;;;;;5055105;28;20040;-79
2023/07/02 02:36:02;;;;;;;0.45;0.22;;;16.50;99.90;;;;;;5056453;28;20013;-79
2023/07/02 02:38:29;;;;;;;1.85;1.17;;;16.50;99.90;;;;;;5052159;28;20032;-79
2023/07/02 02:40:55;;;;;;;0.32;0.32;;;16.50;99.90;;;;;;5052232;28;20025;-79
2023/07/02 02:43:20;;;;;;;0.10;0.10;;;16.60;99.90;;;;;;5051633;28;20033;-79
2023/07/02 02:45:47;;;;;;;2.53;0.80;;;16.70;99.90;;;;;;5051591;28;20067;-82
2023/07/02 02:48:13;;;;;;;2.05;1.70;;;17.00;99.90;;;;;;5051948;28;20033;-80
2023/07/02 02:50:42;;;;;;;0.00;0.00;;;17.10;99.90;;;;;;5035239;28;20051;-82
2023/07/02 02:53:10;;;;;;;1.10;1.08;;;17.00;99.90;;;;;;5052542;28;20029;-82
2023/07/02 02:55:36;;;;;;;2.17;2.08;;;16.90;99.90;;;;;;5053012;28;20013;-79
2023/07/02 02:58:02;;;;;;;1.48;1.38;;;17.00;99.90;;;;;;5052988;28;20025;-80
2023/07/02 03:00:28;;;;;;;0.00;0.00;;;16.90;99.90;;;;;;5051477;28;20393;-79
2023/07/02 03:02:55;;;;;;;3.85;2.65;;;16.80;99.90;;;;;;5035076;28;20032;-79
2023/07/02 03:05:22;;;;;;;4.80;0.93;;;16.70;99.90;;;;;;5053278;28;20056;-80
2023/07/02 03:07:48;;;;;;;0.20;0.20;;;16.90;99.90;;;;;;5053429;28;20079;-79
2023/07/02 03:10:14;;;;;;;0.52;0.52;;;16.80;99.90;;;;;;5054091;28;20029;-79
2023/07/02 03:12:39;;;;;;;0.52;0.52;;;16.60;99.90;;;;;;5053721;28;20021;-79
2023/07/02 03:15:06;;;;;;;9.13;3.92;;;16.80;99.90;;;;;;5051894;28;20371;-81
2023/07/02 03:17:31;;;;;;;0.15;0.15;;;16.70;99.90;;;;;;5053158;28;20028;-80
2023/07/02 03:19:59;;;;;;;3.90;1.23;;;16.70;99.90;;;;;;5053450;28;20025;-79
2023/07/02 03:22:25;;;;;;;0.35;0.35;;;16.70;99.90;;;;;;5053287;28;20095;-79
2023/07/02 03:24:50;;;;;;;2.63;1.95;;;16.70;99.90;;;;;;5053829;28;20477;-78
2023/07/02 03:27:16;;;;;;;3.42;2.00;;;16.70;99.90;;;;;;5053373;28;20059;-80
2023/07/02 03:29:42;;;;;;;0.32;0.20;;;16.60;99.90;;;;;;5052836;28;20568;-82
2023/07/02 03:32:08;;;;;;;0.77;0.75;;;16.60;99.90;;;;;;5052991;28;20033;-81
2023/07/02 03:34:34;;;;;;;0.20;0.20;;;16.60;99.90;;;;;;5052891;28;20025;-79
2023/07/02 03:36:59;;;;;;;0.43;0.43;;;16.70;99.90;;;;;;5053459;28;20048;-79
2023/07/02 03:39:25;;;;;;;0.00;0.00;;;16.70;99.90;;;;;;5054345;28;20489;-79
2023/07/02 03:41:51;;;;;;;0.80;0.75;;;16.80;99.90;;;;;;5052059;28;20496;-79
2023/07/02 03:44:17;;;;;;;0.00;0.00;;;16.70;99.90;;;;;;5053995;28;20041;-78
2023/07/02 03:46:43;;;;;;;0.30;0.30;;;16.90;99.90;;;;;;5052251;28;20386;-79
2023/07/02 03:49:08;;;;;;;5.40;1.08;;;17.00;99.90;;;;;;5053449;28;20036;-81
2023/07/02 03:51:34;;;;;;;0.93;0.88;;;17.00;99.90;;;;;;5050926;28;20029;-79
2023/07/02 03:54:00;;;;;;;0.95;0.77;;;17.00;99.90;;;;;;5052568;28;20079;-78
2023/07/02 03:56:26;;;;;;;0.00;0.00;;;17.20;99.90;;;;;;5053345;28;20033;-79
2023/07/02 03:58:53;;;;;;;2.58;1.40;;;17.20;99.90;;;;;;5056243;28;20482;-79
2023/07/02 04:01:18;;;;;;;3.05;2.35;;;17.20;99.90;;;;;;5056195;28;20562;-79
2023/07/02 04:03:49;;;;;;;0.10;0.10;;;17.10;99.90;;;;;;5056943;28;20049;-80
2023/07/02 04:06:15;;;;;;;0.52;0.52;;;16.90;99.90;;;;;;5057546;28;20036;-78
2023/07/02 04:08:41;;;;;;;0.95;0.95;;;17.00;99.90;;;;;;5059720;28;20017;-80
2023/07/02 04:11:07;;;;;;;3.83;1.85;;;16.90;99.90;;;;;;5057456;28;20040;-79
2023/07/02 04:13:33;;;;;;;0.90;0.90;;;16.80;99.90;;;;;;5059838;28;20104;-79
2023/07/02 04:15:58;;;;;;;0.35;0.35;;;16.80;99.90;;;;;;5060682;28;20033;-79
2023/07/02 04:18:24;;;;;;;2.13;1.00;;;17.00;99.90;;;;;;5058239;28;20025;-79
2023/07/02 04:20:50;;;;;;;2.33;1.55;;;16.90;99.90;;;;;;5055506;28;20029;-79
2023/07/02 04:23:16;;;;;;;0.73;0.47;;;16.70;99.90;;;;;;5058057;28;20377;-79
2023/07/02 04:25:42;;;;;;;3.30;1.65;;;17.00;99.90;;;;;;5058690;28;20087;-78
2023/07/02 04:28:08;;;;;;;0.35;0.35;;;17.10;99.90;;;;;;5060424;28;20074;-80
2023/07/02 04:30:34;;;;;;;3.15;1.63;;;17.10;99.90;;;;;;5057424;28;20029;-79
2023/07/02 04:33:00;;;;;;;0.00;0.00;;;17.00;99.90;;;;;;5057718;28;20028;-80
2023/07/02 04:35:26;;;;;;;1.15;0.88;;;17.10;99.90;;;;;;5056497;28;20032;-79
2023/07/02 04:37:52;;;;;;;1.17;0.75;;;17.00;99.90;;;;;;5055810;28;20127;-79
2023/07/02 04:40:18;;;;;;;1.08;0.70;;;17.10;99.90;;;;;;5056994;28;20028;-82
2023/07/02 04:42:46;;;;;;;1.40;1.23;;;17.00;99.90;;;;;;5055876;28;20037;-82
2023/07/02 04:45:14;;;;;;;2.35;0.88;;;17.10;99.90;;;;;;5058001;28;20094;-82
2023/07/02 04:47:42;;;;;;;15.23;5.35;;;17.10;99.90;;;;;;5057169;28;20029;-82
2023/07/02 04:50:08;;;;;;;13.35;4.97;;;17.20;99.90;;;;;;5058204;28;20036;-82
2023/07/02 04:52:34;;;;;;;10.48;3.10;;;16.90;99.90;;;;;;5058206;28;20175;-80
2023/07/02 04:55:00;;;;;;;3.50;1.77;;;16.90;99.90;;;;;;5057581;28;20119;-79
2023/07/02 04:57:28;;;;;;;0.08;0.08;;;16.90;99.90;;;;;;5056718;28;20100;-80
2023/07/02 04:59:54;;;;;;;0.60;0.60;;;16.90;99.90;;;;;;5056222;28;20033;-80
2023/07/02 05:02:20;;;;;;;0.10;0.10;;;17.00;99.90;;;;;;5054483;28;20454;-79
2023/07/02 05:04:46;;;;;;;5.68;1.42;;;17.20;99.90;;;;;;5056652;28;20040;-80
2023/07/02 05:07:11;;;;;;;1.02;0.73;;;17.30;99.90;;;;;;5057424;28;20025;-79
2023/07/02 05:09:37;;;;;;;1.60;0.85;;;17.40;99.90;;;;;;5058245;28;20367;-79
2023/07/02 05:12:04;;;;;;;2.63;2.08;;;17.30;99.90;;;;;;5059927;28;20079;-79
2023/07/02 05:14:29;;;;;;;0.00;0.00;;;17.20;99.90;;;;;;5061208;28;20083;-81
2023/07/02 05:16:56;;;;;;;5.00;3.00;;;17.20;99.90;;;;;;5056487;28;20417;-82
2023/07/02 05:19:22;;;;;;;0.15;0.15;;;17.30;99.90;;;;;;5061472;28;20047;-79
2023/07/02 05:21:48;;;;;;;3.17;1.42;;;17.40;99.90;;;;;;5058852;28;20025;-81
2023/07/02 05:24:14;;;;;;;10.23;2.65;;;17.20;99.90;;;;;;5058245;28;20473;-81
2023/07/02 05:26:39;;;;;;;4.05;2.40;;;17.30;99.90;;;;;;5061019;28;20078;-81
2023/07/02 05:29:06;;;;;;;7.20;5.22;;;17.30;99.90;;;;;;5060655;28;20525;-80
2023/07/02 05:31:34;;;;;;;0.60;0.28;;;17.40;99.90;;;;;;5058128;28;20017;-79
2023/07/02 05:34:00;;;;;;;3.60;3.25;;;17.20;99.90;;;;;;5055521;28;20104;-79
2023/07/02 05:36:25;;;;;;;1.75;1.15;;;17.40;99.90;;;;;;5056590;28;20021;-79
2023/07/02 05:38:51;;;;;;;9.70;3.72;;;17.50;99.90;;;;;;5055706;28;20100;-79
2023/07/02 05:41:20;;;;;;;4.85;4.38;;;17.40;99.90;;;;;;5055157;28;20057;-79
2023/07/02 05:43:47;;;;;;;0.80;0.60;;;17.50;99.90;;;;;;5041762;28;20032;-79
2023/07/02 05:46:14;;;;;;;1.13;1.02;;;17.80;99.90;;;;;;5053840;28;20124;-79
2023/07/02 05:48:43;;;;;;;0.10;0.10;;;17.60;99.90;;;;;;5053603;28;20027;-82
2023/07/02 05:51:09;;;;;;;2.25;1.92;;;17.50;99.90;;;;;;5051548;28;20032;-79
2023/07/02 05:53:36;;;;;;;6.25;1.65;;;17.70;99.90;;;;;;5037949;28;20540;-80
2023/07/02 05:56:02;;;;;;;4.57;2.72;;;17.60;99.90;;;;;;5053753;28;20470;-82
2023/07/02 05:58:29;;;;;;;1.42;1.25;;;17.60;99.90;;;;;;5055541;28;20039;-82
2023/07/02 06:00:56;;;;;;;0.08;0.08;;;17.60;99.90;;;;;;5056269;28;20033;-81
2023/07/02 06:03:21;;;;;;;3.75;0.80;;;17.60;99.90;;;;;;5054788;28;20063;-82
2023/07/02 06:05:48;;;;;;;18.15;4.57;;;17.50;99.90;;;;;;5055608;28;20032;-82
2023/07/02 06:08:16;;;;;;;32.08;4.65;;;17.60;99.90;;;;;;5055631;28;20029;-80
2023/07/02 06:10:42;;;;;;;2.15;1.77;;;17.50;99.90;;;;;;5052132;28;20017;-81
2023/07/02 06:13:08;;;;;;;0.65;0.65;;;17.50;99.90;;;;;;5054563;28;20044;-78
2023/07/02 06:15:34;;;;;;;0.82;0.82;;;17.70;99.90;;;;;;5055407;28;20025;-79
2023/07/02 06:18:00;;;;;;;2.75;1.73;;;17.60;99.90;;;;;;5055569;28;20093;-79
2023/07/02 06:20:26;;;;;;;2.72;1.63;;;17.50;99.90;;;;;;5055160;28;20073;-81
2023/07/02 06:22:52;;;;;;;0.40;0.40;;;17.50;99.90;;;;;;5055517;28;20017;-81
2023/07/02 06:25:18;;;;;;;1.30;1.20;;;17.70;99.90;;;;;;5055450;28;20043;-81
2023/07/02 06:27:44;;;;;;;0.32;0.32;;;17.60;99.90;;;;;;5057332;28;20021;-79
2023/07/02 06:30:10;;;;;;;2.28;0.98;;;17.70;99.90;;;;;;5056514;28;20495;-83
2023/07/02 06:32:37;;;;;;;0.10;0.10;;;17.70;99.90;;;;;;5052218;28;20067;-81
2023/07/02 06:35:05;;;;;;;0.03;0.03;;;17.70;99.90;;;;;;5049733;28;20045;-81
2023/07/02 06:37:34;;;;;;;2.05;1.85;;;17.90;99.90;;;;;;5053363;28;20048;-80
2023/07/02 06:39:59;;;;;;;0.22;0.22;;;17.90;99.90;;;;;;5052364;28;20471;-83
2023/07/02 06:42:25;;;;;;;1.65;1.25;;;18.20;99.90;;;;;;5046487;28;20048;-80
2023/07/02 06:44:51;;;;;;;0.25;0.25;;;18.20;99.90;;;;;;5048049;28;20029;-80
2023/07/02 06:47:17;;;;;;;2.40;0.57;;;18.40;99.90;;;;;;5046588;28;20044;-80
2023/07/02 06:49:43;;;;;;;2.90;2.35;;;18.10;99.90;;;;;;5054533;28;20397;-81
2023/07/02 06:52:09;;;;;;;7.90;6.10;;;17.90;99.90;;;;;;5050637;28;20078;-79
2023/07/02 06:54:35;;;;;;;6.13;1.88;;;18.00;99.90;;;;;;5053326;28;20036;-80
2023/07/02 06:57:01;;;;;;;1.55;1.45;;;18.00;99.90;;;;;;5049651;28;20049;-83
2023/07/02 06:59:27;;;;;;;1.25;0.70;;;18.10;99.90;;;;;;5059132;28;20029;-80
2023/07/02 07:01:53;;;;;;;1.48;1.38;;;18.30;99.90;;;;;;5051390;28;20496;-79
2023/07/02 07:04:19;;;;;;;1.65;1.08;;;18.40;99.90;;;;;;5048258;28;20037;-80
2023/07/02 07:06:44;;;;;;;8.00;1.70;;;18.40;99.90;;;;;;5052295;28;20191;-80
2023/07/02 07:09:10;;;;;;;2.03;0.75;;;18.50;99.90;;;;;;5046935;28;20036;-81
2023/07/02 07:11:36;;;;;;;0.98;0.65;;;18.60;99.90;;;;;;5051994;28;20029;-79
2023/07/02 07:14:02;;;;;;;3.92;2.08;;;18.70;99.90;;;;;;5056771;28;20112;-81
2023/07/02 07:16:28;;;;;;;1.45;0.65;;;18.80;99.90;;;;;;5054555;28;20025;-81
2023/07/02 07:18:54;;;;;;;0.20;0.20;;;18.50;99.90;;;;;;5053969;28;20469;-82
2023/07/02 07:21:20;;;;;;;0.20;0.20;;;18.40;99.90;;;;;;5056447;28;20056;-81
2023/07/02 07:23:45;;;;;;;0.68;0.52;;;18.60;99.90;;;;;;5053863;28;20029;-83
2023/07/02 07:26:11;;;;;;;6.50;0.85;;;18.60;99.90;;;;;;5057194;28;20041;-80
2023/07/02 07:28:37;;;;;;;0.38;0.38;;;19.10;99.90;;;;;;5056670;28;20081;-81
2023/07/02 07:31:03;;;;;;;1.23;0.88;;;18.90;99.90;;;;;;5054428;28;20025;-78
2023/07/02 07:33:29;;;;;;;1.52;0.85;;;18.50;99.90;;;;;;5054936;28;20488;-79
2023/07/02 07:35:55;;;;;;;0.00;0.00;;;18.50;99.90;;;;;;5059967;28;20044;-79
2023/07/02 07:38:21;;;;;;;1.00;0.88;;;18.60;99.90;;;;;;5055559;28;20434;-80
2023/07/02 07:40:47;;;;;;;3.35;1.60;;;18.70;99.90;;;;;;5054116;28;20071;-79
2023/07/02 07:43:13;;;;;;;1.00;0.55;;;18.80;99.90;;;;;;5056318;28;20037;-80
2023/07/02 07:45:38;;;;;;;10.20;1.35;;;19.00;99.90;;;;;;5054854;28;20048;-77
2023/07/02 07:48:06;;;;;;;0.80;0.80;;;19.30;99.90;;;;;;5052864;28;20017;-77
2023/07/02 07:50:31;;;;;;;3.22;1.17;;;19.50;99.90;;;;;;5041063;28;20454;-76
2023/07/02 07:52:59;;;;;;;10.05;2.17;;;19.50;99.90;;;;;;5052709;28;20083;-80
2023/07/02 07:55:25;;;;;;;0.00;0.00;;;18.70;99.90;;;;;;5051406;28;20017;-83
2023/07/02 07:57:50;;;;;;;0.25;0.25;;;18.80;99.90;;;;;;5051236;28;20060;-77
2023/07/02 08:00:17;;;;;;;6.28;1.55;;;19.60;99.90;;;;;;5054006;28;20056;-79
2023/07/02 08:02:45;;;;;;;2.63;0.85;;;19.70;99.90;;;;;;5054486;28;20029;-80
2023/07/02 08:05:11;;;;;;;8.68;1.90;;;19.80;99.90;;;;;;5054239;28;20056;-80
2023/07/02 08:07:37;;;;;;;0.17;0.17;;;19.60;99.90;;;;;;5052447;28;20029;-80
2023/07/02 08:10:03;;;;;;;0.08;0.03;;;19.50;99.90;;;;;;5058349;28;20033;-79
2023/07/02 08:12:31;;;;;;;2.90;1.65;;;19.50;99.90;;;;;;5056319;28;20044;-79
2023/07/02 08:14:57;;;;;;;0.65;0.57;;;19.50;99.90;;;;;;5058115;28;20028;-78
2023/07/02 08:17:23;;;;;;;4.05;1.38;;;19.70;99.90;;;;;;5059020;28;20040;-77
2023/07/02 08:19:48;;;;;;;0.47;0.20;;;19.70;99.90;;;;;;5056485;28;20419;-78
2023/07/02 08:22:14;;;;;;;2.00;1.45;;;19.40;99.90;;;;;;5054289;28;20021;-78
2023/07/02 08:24:40;;;;;;;5.03;2.60;;;18.80;99.90;;;;;;5047583;28;20029;-76
2023/07/02 08:27:06;;;;;;;2.33;1.08;;;19.00;99.90;;;;;;5049200;28;20515;-78
2023/07/02 08:29:32;;;;;;;4.38;1.10;;;19.00;99.90;;;;;;5050533;28;20052;-78
2023/07/02 08:31:58;;;;;;;4.43;2.58;;;19.10;99.90;;;;;;5052490;28;20048;-78
2023/07/02 08:34:24;;;;;;;0.17;0.17;;;19.10;99.90;;;;;;5053043;28;20457;-78
2023/07/02 08:36:51;;;;;;;3.13;1.20;;;19.10;99.90;;;;;;5053067;28;20017;-78
2023/07/02 08:39:17;;;;;;;4.90;2.65;;;19.40;99.90;;;;;;5053304;28;20033;-77
2023/07/02 08:41:47;;;;;;;0.10;0.10;;;19.20;99.90;;;;;;5053150;28;20064;-78
2023/07/02 08:44:13;;;;;;;4.60;2.50;;;19.00;99.90;;;;;;5046655;28;20439;-79
2023/07/02 08:46:41;;;;;;;0.50;0.50;;;19.10;99.90;;;;;;5053552;28;20087;-78
2023/07/02 08:49:07;;;;;;;1.30;1.20;;;19.10;99.90;;;;;;5053293;28;20040;-78
2023/07/02 08:51:33;;;;;;;7.05;1.98;;;19.50;99.90;;;;;;5053383;28;20378;-78
2023/07/02 08:53:59;;;;;;;1.88;1.13;;;19.70;99.90;;;;;;5052002;28;20025;-78
2023/07/02 08:56:26;;;;;;;1.45;0.63;;;19.30;99.90;;;;;;5047634;28;20029;-78
2023/07/02 08:58:52;;;;;;;0.40;0.38;;;19.70;99.90;;;;;;5052515;28;20147;-77
2023/07/02 09:01:19;;;;;;;4.15;1.30;;;19.70;99.90;;;;;;5053120;28;20033;-78
2023/07/02 09:03:46;;;;;;;5.43;1.90;;;19.60;99.90;;;;;;5053905;28;20020;-78
2023/07/02 09:06:12;;;;;;;0.40;0.40;;;19.70;99.90;;;;;;5053023;28;20044;-80
2023/07/02 09:08:38;;;;;;;0.28;0.28;;;19.60;99.90;;;;;;5051508;28;20174;-78
2023/07/02 09:11:12;;;;;;;0.00;0.00;;;19.50;99.90;;;;;;5051894;28;20033;-79
2023/07/02 09:13:48;;;;;;;0.00;0.00;;;19.80;99.90;;;;;;5051462;28;20444;-79
2023/07/02 09:16:28;;;;;;;4.72;2.03;;;20.40;99.90;;;;;;5052779;28;20067;-80
2023/07/02 09:19:07;;;;;;;2.63;1.73;;;20.50;99.90;;;;;;5054076;28;20045;-79
2023/07/02 09:21:46;;;;;;;1.40;1.15;;;20.30;99.90;;;;;;5062949;28;20029;-80
2023/07/02 09:24:18;;;;;;;0.98;0.25;;;20.30;99.90;;;;;;5050764;28;20036;-80
2023/07/02 09:26:44;;;;;;;;;;;20.10;99.90;;;;;;5053323;28;20112;-78
2023/07/02 09:29:10;;;;;;;3.03;1.80;;;20.00;99.90;;;;;;5051485;28;19991;-80
2023/07/02 09:31:46;;;;;;;0.35;0.35;;;19.60;99.90;;;;;;5052906;28;20029;-80
2023/07/02 09:34:13;;;;;;;5.15;2.13;;;19.50;99.90;;;;;;5052656;28;20021;-80
2023/07/02 09:36:42;;;;;;;10.55;2.38;;;19.70;99.90;;;;;;5052746;28;20151;-83
2023/07/02 09:39:13;;;;;;;4.50;1.58;;;19.70;99.90;;;;;;5052877;28;20082;-80
2023/07/02 09:41:44;;;;;;;1.50;1.02;;;20.00;99.90;;;;;;5052397;28;20043;-81
2023/07/02 09:44:10;;;;;;;1.55;0.65;;;20.10;99.90;;;;;;5052093;28;20033;-82
2023/07/02 09:46:43;;;;;;;9.18;1.55;;;20.30;99.90;;;;;;5052679;28;20024;-80
2023/07/02 09:49:14;;;;;;;3.38;0.80;;;20.50;99.90;;;;;;5052477;28;20029;-80
2023/07/02 09:51:41;;;;;;;4.05;0.80;;;20.50;99.90;;;;;;5052233;28;20056;-81
2023/07/02 09:54:07;;;;;;;2.50;0.93;;;20.70;99.90;;;;;;5051417;28;20486;-80
2023/07/02 09:56:33;;;;;;;2.38;1.10;;;20.90;98.80;;;;;;5050887;28;20062;-80
2023/07/02 09:58:59;;;;;;;4.70;1.40;;;21.50;98.50;;;;;;5052233;28;20402;-79
2023/07/02 10:01:25;;;;;;;4.63;1.00;;;21.70;97.40;;;;;;5047100;28;20124;-81
2023/07/02 10:03:51;;;;;;;2.90;1.90;;;20.90;95.30;;;;;;5051809;28;20098;-80
2023/07/02 10:06:16;;;;;;;6.20;1.52;;;20.60;94.90;;;;;;5051207;28;20036;-80
2023/07/02 10:08:55;;;;;;;5.45;1.65;;;20.60;96.20;;;;;;5052244;28;20082;-79
2023/07/02 10:11:34;;;;;;;4.03;1.88;;;20.40;97.10;;;;;;5051889;28;20025;-80
2023/07/02 10:14:00;;;;;;;3.88;1.25;;;20.30;97.90;;;;;;5052297;28;20059;-80
2023/07/02 10:16:27;;;;;;;12.57;2.63;;;20.00;97.20;;;;;;5051560;28;20025;-78
2023/07/02 10:18:54;;;;;;;2.03;1.92;;;19.90;97.80;;;;;;5051246;28;20072;-79
2023/07/02 10:21:20;;;;;;;0.40;0.15;;;20.10;98.30;;;;;;5050498;28;20033;-79
2023/07/02 10:23:46;;;;;;;2.90;1.25;;;20.30;97.90;;;;;;5052487;28;20039;-79
2023/07/02 10:26:16;;;;;;;8.35;2.63;;;20.30;98.30;;;;;;5033785;28;20009;-79
2023/07/02 10:28:42;;;;;;;3.20;1.40;;;20.20;96.50;;;;;;5052474;28;20035;-81
2023/07/02 10:31:21;;;;;;;1.27;1.17;;;20.50;96.90;;;;;;5052713;28;20588;-78
2023/07/02 10:33:48;;;;;;;11.32;2.95;;;21.60;96.10;;;;;;5052638;28;20021;-80
2023/07/02 10:36:24;;;;;;;6.47;2.85;;;22.00;94.40;;;;;;5052290;28;20032;-80
2023/07/02 10:38:51;;;;;;;11.32;3.03;;;20.80;94.60;;;;;;5052280;28;20025;-81
2023/07/02 10:41:28;;;;;;;9.23;2.65;;;20.30;95.40;;;;;;5052248;28;20036;-78
2023/07/02 10:43:54;;;;;;;21.73;1.60;;;20.10;96.60;;;;;;5042242;28;20029;-80
2023/07/02 10:46:21;;;;;;;0.98;0.50;;;20.20;96.70;;;;;;5052300;28;20029;-79
2023/07/02 10:48:54;;;;;;;1.00;0.82;;;20.30;97.80;;;;;;5052329;28;20017;-79
2023/07/02 10:51:21;;;;;;;0.10;0.10;;;20.50;97.50;;;;;;5052232;28;20104;-78
2023/07/02 10:54:00;;;;;;;1.48;0.70;;;21.00;96.90;;;;;;5052230;28;20040;-79
2023/07/02 10:56:28;;;;;;;6.32;2.13;;;20.90;96.80;;;;;;5044842;28;20037;-78
2023/07/02 10:58:54;;;;;;;0.85;0.40;;;20.80;96.00;;;;;;5052135;28;20032;-79
2023/07/02 11:01:30;;;;;;;4.93;1.15;;;21.50;95.80;;;;;;5051996;28;20020;-80
2023/07/02 11:03:58;;;;;;;4.90;1.83;;;22.10;94.00;;;;;;5051959;28;20075;-80
2023/07/02 11:06:24;;;;;;;1.95;1.45;;;22.20;92.80;;;;;;5055524;28;20066;-80
2023/07/02 11:08:50;;;;;;;1.85;1.00;;;21.40;94.10;;;;;;5070547;28;20413;-80
2023/07/02 11:11:16;;;;;;;0.00;0.00;;;21.90;95.10;;;;;;5055972;28;20032;-80
2023/07/02 11:13:52;;;;;;;7.03;4.03;;;22.30;94.00;;;;;;5056079;28;20480;-79
2023/07/02 11:16:26;;;;;;;1.83;1.73;;;22.20;92.10;;;;;;5056166;28;20358;-82
2023/07/02 11:19:10;;;;;;;6.25;2.47;;;21.50;92.70;;;;;;5055830;28;20032;-78
2023/07/02 11:21:37;;;;;;;1.23;1.13;;;21.10;94.10;;;;;;5056007;28;20029;-79
2023/07/02 11:24:04;;;;;;;9.38;3.33;;;21.30;93.70;;;;;;5055853;28;20035;-79
2023/07/02 11:26:40;;;;;;;1.65;0.47;;;21.20;93.90;;;;;;5063203;28;20419;-79
2023/07/02 11:29:12;;;;;;;4.28;1.13;;;20.90;94.30;;;;;;5060229;28;20029;-80
2023/07/02 11:31:38;;;;;;;8.77;1.73;;;21.10;94.10;;;;;;5064423;28;20470;-79
2023/07/02 11:34:17;;;;;;;2.60;1.10;;;21.40;94.60;;;;;;5075988;28;20028;-79
2023/07/02 11:36:43;;;;;;;14.57;3.33;;;21.70;93.10;;;;;;5074509;28;20171;-80
2023/07/02 11:39:09;;;;;;;1.38;0.65;;;21.80;93.80;;;;;;5065640;28;20469;-79
2023/07/02 11:41:45;;;;;;;0.00;0.00;;;21.50;94.10;;;;;;5055267;28;20041;-79
2023/07/02 11:44:11;;;;;;;2.63;1.52;;;21.00;95.00;;;;;;5056188;28;20127;-80
2023/07/02 11:46:37;;;;;;;1.25;1.13;;;21.50;95.20;;;;;;5055818;28;20106;-80
2023/07/02 11:49:10;;;;;;;2.20;1.77;;;22.40;94.50;;;;;;5055793;28;20469;-79
2023/07/02 11:51:39;;;;;;;1.95;1.00;;;23.10;93.20;;;;;;5045226;28;20025;-79
2023/07/02 11:54:06;;;;;;;1.33;1.17;;;22.50;92.40;;;;;;5052663;28;20021;-80
2023/07/02 11:56:32;;;;;;;8.75;2.88;;;22.20;92.50;;;;;;5053873;28;20032;-78
2023/07/02 11:58:59;;;;;;;0.82;0.52;;;21.70;92.60;;;;;;5054924;28;20075;-78
2023/07/02 12:01:25;;;;;;;1.38;1.17;;;21.50;92.90;;;;;;5054806;28;20029;-79
2023/07/02 12:03:51;;;;;;;5.15;1.58;;;21.60;92.80;;;;;;5053296;28;20040;-79
2023/07/02 12:06:17;;;;;;;2.05;1.13;;;22.00;92.80;;;;;;5054146;28;21031;-79
2023/07/02 12:08:43;;;;;;;0.10;0.10;;;22.10;93.00;;;;;;5048468;28;20029;-80
2023/07/02 12:11:10;;;;;;;13.15;2.30;;;22.00;94.20;;;;;;5046853;28;20642;-80
2023/07/02 12:13:36;;;;;;;3.65;1.20;;;22.20;93.70;;;;;;5050239;28;20021;-79
2023/07/02 12:16:02;;;;;;;0.82;0.82;;;22.50;94.00;;;;;;5053040;28;20090;-79
2023/07/02 12:18:27;;;;;;;0.75;0.68;;;22.60;92.20;;;;;;5052203;28;20033;-79
2023/07/02 12:20:53;;;;;;;2.53;0.95;;;22.60;91.60;;;;;;5053727;28;20496;-79
2023/07/02 12:23:19;;;;;;;0.35;0.10;;;23.00;91.30;;;;;;5051345;28;20025;-78
2023/07/02 12:25:45;;;;;;;3.13;1.33;;;22.60;91.60;;;;;;5049737;28;20068;-80
2023/07/02 12:28:10;;;;;;;1.65;0.85;;;22.40;91.30;;;;;;5041810;28;20104;-79
2023/07/02 12:30:36;;;;;;;1.65;0.95;;;22.10;92.30;;;;;;5036651;28;20029;-78
2023/07/02 12:33:02;;;;;;;1.65;1.13;;;22.60;91.10;;;;;;5048706;28;20025;-78
2023/07/02 12:35:28;;;;;;;3.35;1.65;;;23.00;90.50;;;;;;5052595;28;20014;-79
2023/07/02 12:37:54;;;;;;;5.45;0.93;;;23.10;90.00;;;;;;5049205;28;20033;-79
2023/07/02 12:40:20;;;;;;;13.40;1.83;;;22.80;90.50;;;;;;5052487;28;20039;-79
2023/07/02 12:42:47;;;;;;;3.72;1.45;;;23.10;90.90;;;;;;5052040;28;20044;-78
2023/07/02 12:45:13;;;;;;;0.38;0.38;;;23.90;87.90;;;;;;5053437;28;20037;-79
2023/07/02 12:47:43;;;;;;;5.40;2.42;;;23.90;88.80;;;;;;5054157;28;20040;-79